Time;durP1;ratioP1;P1;durP2;ratioP2;P2;SDS_P1;SDS_P2;PMS_P1;PMS_P2;Temp;Humidity;BMP_temperature;BMP_pressure;BME280_temperature;BME280_humidity;BME280_pressure;Samples;Min_cycle;Max_cycle;Signal;HPM_P1;HPM_P2
2021/03/31 00:01:18;;;;;;;17.87;8.70;;;13.60;1.00;;;;;;5013096;28;20447;-84
2021/03/31 00:03:44;;;;;;;17.70;8.27;;;13.50;1.00;;;;;;5006263;28;20494;-83
2021/03/31 00:06:10;;;;;;;15.53;9.03;;;13.50;1.00;;;;;;5010857;28;20889;-84
2021/03/31 00:08:35;;;;;;;17.47;9.37;;;13.50;1.00;;;;;;5013505;28;20190;-84
2021/03/31 00:11:01;;;;;;;18.90;9.00;;;13.30;1.00;;;;;;5010735;28;20297;-83
2021/03/31 00:13:27;;;;;;;10.67;6.70;;;13.20;1.00;;;;;;5008071;28;20713;-83
2021/03/31 00:15:55;;;;;;;20.53;7.40;;;13.20;1.00;;;;;;5012113;28;20190;-83
2021/03/31 00:18:22;;;;;;;14.37;7.80;;;13.30;1.00;;;;;;5019994;28;20464;-83
2021/03/31 00:20:48;;;;;;;12.87;5.63;;;13.30;1.00;;;;;;5012096;28;20466;-84
2021/03/31 00:23:17;;;;;;;10.00;3.90;;;13.50;1.00;;;;;;5011401;28;21074;-83
2021/03/31 00:25:43;;;;;;;6.53;3.90;;;13.60;1.00;;;;;;5014034;28;20545;-83
2021/03/31 00:28:10;;;;;;;8.47;4.77;;;13.80;1.00;;;;;;5018533;28;20445;-84
2021/03/31 00:30:36;;;;;;;8.30;4.33;;;13.80;1.00;;;;;;5030999;28;20479;-84
2021/03/31 00:33:03;;;;;;;7.60;5.13;;;14.10;1.00;;;;;;5027159;28;20520;-84
2021/03/31 00:35:29;;;;;;;8.40;5.27;;;14.10;1.00;;;;;;5028954;28;20446;-83
2021/03/31 00:37:54;;;;;;;5.33;3.60;;;14.20;1.00;;;;;;5024859;28;20453;-84
2021/03/31 00:40:22;;;;;;;12.53;4.50;;;14.10;1.00;;;;;;5019368;28;20507;-83
2021/03/31 00:42:48;;;;;;;8.33;4.37;;;14.10;1.00;;;;;;5009679;28;20229;-83
2021/03/31 00:45:15;;;;;;;8.73;4.60;;;14.10;1.00;;;;;;5007822;28;20484;-82
2021/03/31 00:47:41;;;;;;;6.53;4.30;;;14.10;1.00;;;;;;5009566;28;25111;-84
2021/03/31 00:50:14;;;;;;;6.73;4.10;;;14.10;1.00;;;;;;5006400;28;20471;-85
2021/03/31 00:52:42;;;;;;;6.10;4.07;;;14.20;1.00;;;;;;5008353;28;20178;-84
2021/03/31 00:55:09;;;;;;;7.93;4.30;;;14.20;1.00;;;;;;5004781;28;20464;-83
2021/03/31 00:57:36;;;;;;;6.60;4.47;;;14.20;1.00;;;;;;5008169;28;20447;-84
2021/03/31 01:00:03;;;;;;;7.23;4.77;;;14.30;1.00;;;;;;5011770;28;21012;-83
2021/03/31 01:02:29;;;;;;;8.77;4.70;;;14.10;1.00;;;;;;5009152;28;20545;-83
2021/03/31 01:04:54;;;;;;;5.03;3.63;;;14.20;1.00;;;;;;5008898;28;20506;-83
2021/03/31 01:07:20;;;;;;;10.07;4.40;;;14.20;1.00;;;;;;5010512;28;20182;-84
2021/03/31 01:09:46;;;;;;;5.50;4.37;;;14.20;1.00;;;;;;5008247;28;20391;-84
2021/03/31 01:12:29;;;;;;;11.13;4.93;;;14.40;1.00;;;;;;5007488;28;20191;-83
2021/03/31 01:15:19;;;;;;;8.90;4.03;;;14.60;1.00;;;;;;5005119;28;21385;-84
2021/03/31 01:17:55;;;;;;;7.40;4.00;;;14.60;1.00;;;;;;5009902;28;20580;-84
2021/03/31 01:20:58;;;;;;;7.10;4.90;;;14.60;1.00;;;;;;5009584;28;24546;-84
2021/03/31 01:23:30;;;;;;;6.63;4.00;;;14.70;1.00;;;;;;5000332;28;20529;-84
2021/03/31 01:26:11;;;;;;;6.27;3.80;;;14.70;1.00;;;;;;5007069;28;20532;-84
2021/03/31 01:29:14;;;;;;;6.27;4.30;;;14.60;1.00;;;;;;5008024;28;20973;-84
2021/03/31 01:31:47;;;;;;;6.07;4.40;;;14.70;1.00;;;;;;5008324;28;20460;-83
2021/03/31 01:34:36;;;;;;;7.53;4.30;;;14.60;1.00;;;;;;5007082;28;20460;-84
2021/03/31 01:37:08;;;;;;;7.13;4.93;;;14.60;1.00;;;;;;5009754;28;20454;-84
2021/03/31 01:39:38;;;;;;;12.17;4.00;;;14.60;1.00;;;;;;5018197;28;20940;-84
2021/03/31 01:42:05;;;;;;;8.50;4.63;;;14.60;1.00;;;;;;5013879;28;20499;-83
2021/03/31 01:44:31;;;;;;;7.83;4.90;;;14.70;1.00;;;;;;5007845;28;20459;-83
2021/03/31 01:46:59;;;;;;;10.43;5.30;;;14.80;1.00;;;;;;5007565;28;20796;-84
2021/03/31 01:49:27;;;;;;;9.07;4.70;;;14.90;1.00;;;;;;5008167;28;20193;-83
2021/03/31 01:51:56;;;;;;;7.67;4.70;;;15.00;1.00;;;;;;5012635;28;20500;-84
2021/03/31 01:54:22;;;;;;;11.50;4.97;;;14.90;1.00;;;;;;5020571;28;20444;-84
2021/03/31 01:56:48;;;;;;;9.37;5.07;;;14.90;1.00;;;;;;5025301;28;20445;-82
2021/03/31 01:59:19;;;;;;;13.67;4.77;;;14.90;1.00;;;;;;5020665;28;20521;-83
2021/03/31 02:01:49;;;;;;;7.33;5.50;;;14.80;1.00;;;;;;5018556;28;20456;-83
2021/03/31 02:04:16;;;;;;;8.27;5.10;;;14.60;1.00;;;;;;5012957;28;20498;-84
2021/03/31 02:06:42;;;;;;;6.97;4.40;;;14.70;1.00;;;;;;5006925;28;21862;-84
2021/03/31 02:09:09;;;;;;;8.60;4.67;;;14.60;1.00;;;;;;5009309;28;20985;-84
2021/03/31 02:11:35;;;;;;;8.57;5.83;;;14.60;1.00;;;;;;5007784;28;20454;-83
2021/03/31 02:14:01;;;;;;;6.20;4.07;;;14.60;1.00;;;;;;5006980;28;20455;-83
2021/03/31 02:16:31;;;;;;;14.23;5.00;;;14.60;1.00;;;;;;5007188;28;20175;-84
2021/03/31 02:18:57;;;;;;;8.00;4.50;;;14.60;1.00;;;;;;5011203;28;20511;-85
2021/03/31 02:21:23;;;;;;;7.57;4.73;;;14.60;1.00;;;;;;5005116;28;20542;-84
2021/03/31 02:23:50;;;;;;;6.90;4.60;;;14.50;1.00;;;;;;5008690;28;20453;-84
2021/03/31 02:26:19;;;;;;;7.23;4.00;;;14.30;1.00;;;;;;5008960;28;20461;-84
2021/03/31 02:28:45;;;;;;;5.80;4.47;;;14.20;1.00;;;;;;5004812;28;20440;-83
2021/03/31 02:31:14;;;;;;;9.97;4.90;;;14.00;1.00;;;;;;5007679;28;20531;-84
2021/03/31 02:33:43;;;;;;;11.70;5.40;;;13.90;1.00;;;;;;5005347;28;21623;-83
2021/03/31 02:36:12;;;;;;;7.10;4.33;;;13.80;1.00;;;;;;5013861;28;20491;-83
2021/03/31 02:38:38;;;;;;;7.67;5.80;;;13.70;1.00;;;;;;5016617;28;20445;-84
2021/03/31 02:41:04;;;;;;;8.00;5.30;;;13.70;1.00;;;;;;5006246;28;20470;-84
2021/03/31 02:43:31;;;;;;;8.67;4.47;;;13.60;1.00;;;;;;5006794;28;20468;-84
2021/03/31 02:45:58;;;;;;;7.00;5.40;;;13.60;1.00;;;;;;5007963;28;21022;-84
2021/03/31 02:48:27;;;;;;;10.63;5.20;;;13.50;1.00;;;;;;5008321;28;20453;-83
2021/03/31 02:50:57;;;;;;;12.60;5.80;;;13.50;1.00;;;;;;5005891;28;20540;-84
2021/03/31 02:53:24;;;;;;;8.67;4.60;;;13.40;1.00;;;;;;5008145;28;20449;-83
2021/03/31 02:55:51;;;;;;;7.20;4.50;;;13.50;1.00;;;;;;5006482;28;20913;-83
2021/03/31 02:58:17;;;;;;;8.00;4.27;;;13.40;1.00;;;;;;5007065;28;20464;-83
2021/03/31 03:00:43;;;;;;;7.10;4.10;;;13.50;1.00;;;;;;5009113;28;21274;-83
2021/03/31 03:03:10;;;;;;;7.90;4.37;;;13.40;1.00;;;;;;5007061;28;20980;-84
2021/03/31 03:05:36;;;;;;;6.00;3.70;;;13.40;1.00;;;;;;5004794;28;20349;-84
2021/03/31 03:08:03;;;;;;;6.87;3.63;;;13.40;1.00;;;;;;5004960;28;20986;-84
2021/03/31 03:10:29;;;;;;;6.93;3.83;;;13.30;1.00;;;;;;5007431;28;20797;-84
2021/03/31 03:12:58;;;;;;;7.10;4.07;;;13.30;1.00;;;;;;5004641;28;20446;-84
2021/03/31 03:15:29;;;;;;;7.00;4.30;;;13.10;1.00;;;;;;5007498;28;20670;-83
2021/03/31 03:17:55;;;;;;;21.77;4.33;;;13.30;1.00;;;;;;5006706;28;20449;-84
2021/03/31 03:20:22;;;;;;;7.00;4.17;;;13.20;1.00;;;;;;5010562;28;20571;-83
2021/03/31 03:22:51;;;;;;;9.77;4.83;;;13.20;1.00;;;;;;5008305;28;20693;-83
2021/03/31 03:25:21;;;;;;;6.03;4.10;;;13.00;1.00;;;;;;5005694;28;20521;-84
2021/03/31 03:27:48;;;;;;;4.83;4.33;;;12.90;1.00;;;;;;5006674;28;20519;-84
2021/03/31 03:30:16;;;;;;;11.60;4.07;;;12.90;1.00;;;;;;5006000;28;20454;-84
2021/03/31 03:32:44;;;;;;;9.30;3.87;;;12.90;1.00;;;;;;5007852;28;20505;-83
2021/03/31 03:35:15;;;;;;;6.17;4.27;;;12.90;1.00;;;;;;5009120;28;21170;-84
2021/03/31 03:37:45;;;;;;;11.83;4.67;;;13.00;1.00;;;;;;5008906;28;20460;-84
2021/03/31 03:40:12;;;;;;;6.63;3.57;;;13.10;1.00;;;;;;5007983;28;20984;-84
2021/03/31 03:42:38;;;;;;;11.47;4.33;;;13.40;1.00;;;;;;5009079;28;20475;-83
2021/03/31 03:45:06;;;;;;;6.80;3.80;;;13.70;1.00;;;;;;5011840;28;20547;-84
2021/03/31 03:47:32;;;;;;;6.37;3.20;;;13.80;1.00;;;;;;5009424;28;20185;-84
2021/03/31 03:50:00;;;;;;;5.87;3.73;;;13.80;1.00;;;;;;5015671;28;20469;-84
2021/03/31 03:52:28;;;;;;;9.17;4.87;;;13.90;1.00;;;;;;5009509;28;24855;-83
2021/03/31 03:54:55;;;;;;;5.87;3.60;;;14.00;1.00;;;;;;5011588;28;20445;-83
2021/03/31 03:57:22;;;;;;;7.70;3.37;;;13.90;1.00;;;;;;5009636;28;21062;-83
2021/03/31 03:59:48;;;;;;;7.03;4.20;;;13.90;1.00;;;;;;5012110;28;21066;-84
2021/03/31 04:02:14;;;;;;;9.70;3.90;;;13.90;1.00;;;;;;5010677;28;20439;-84
2021/03/31 04:04:39;;;;;;;6.30;3.90;;;13.90;1.00;;;;;;5008077;28;20197;-84
2021/03/31 04:07:05;;;;;;;5.83;4.00;;;14.00;1.00;;;;;;5012380;28;20579;-83
2021/03/31 04:09:32;;;;;;;6.73;4.10;;;14.00;1.00;;;;;;5009479;28;20193;-83
2021/03/31 04:11:59;;;;;;;7.87;3.67;;;14.10;1.00;;;;;;5011927;28;20189;-84
2021/03/31 04:14:25;;;;;;;5.37;3.43;;;14.10;1.00;;;;;;5005105;28;20438;-83
2021/03/31 04:16:53;;;;;;;11.27;4.80;;;14.10;1.00;;;;;;5011963;28;20453;-84
2021/03/31 04:19:19;;;;;;;6.97;4.37;;;14.10;1.00;;;;;;5014751;28;20441;-83
2021/03/31 04:21:45;;;;;;;10.43;4.80;;;14.00;1.00;;;;;;5014535;28;20557;-84
2021/03/31 04:24:13;;;;;;;9.13;4.00;;;13.90;1.00;;;;;;5014509;28;20476;-84
2021/03/31 04:26:39;;;;;;;8.80;4.83;;;13.90;1.00;;;;;;5012654;28;20194;-83
2021/03/31 04:29:09;;;;;;;7.03;4.37;;;13.90;1.00;;;;;;5006714;28;20493;-84
2021/03/31 04:31:38;;;;;;;7.97;4.90;;;14.00;1.00;;;;;;5010023;28;20450;-83
2021/03/31 04:34:06;;;;;;;7.40;4.27;;;14.00;1.00;;;;;;5002385;28;20463;-83
2021/03/31 04:36:32;;;;;;;8.10;4.23;;;13.90;1.00;;;;;;5006749;28;20461;-84
2021/03/31 04:38:58;;;;;;;7.30;4.23;;;14.00;1.00;;;;;;5010056;28;20452;-83
2021/03/31 04:41:24;;;;;;;9.73;4.07;;;14.00;1.00;;;;;;5010419;28;20608;-83
2021/03/31 04:43:50;;;;;;;9.20;4.50;;;14.10;1.00;;;;;;5008282;28;22086;-83
2021/03/31 04:46:15;;;;;;;9.93;4.90;;;14.00;1.00;;;;;;5009188;28;20198;-82
2021/03/31 04:48:42;;;;;;;7.30;4.87;;;13.90;1.00;;;;;;5005055;28;20891;-83
2021/03/31 04:51:08;;;;;;;6.60;4.70;;;14.00;1.00;;;;;;5009393;28;20211;-83
2021/03/31 04:53:34;;;;;;;17.40;5.03;;;14.10;1.00;;;;;;5011380;28;20934;-83
2021/03/31 04:56:00;;;;;;;7.97;5.00;;;14.10;1.00;;;;;;5016526;28;20945;-83
2021/03/31 04:58:26;;;;;;;5.93;3.87;;;14.10;1.00;;;;;;5014272;28;20852;-83
2021/03/31 05:00:52;;;;;;;8.47;4.60;;;14.10;1.00;;;;;;5011045;28;20442;-83
2021/03/31 05:03:18;;;;;;;9.63;5.30;;;14.10;1.00;;;;;;5011484;28;20770;-83
2021/03/31 05:05:43;;;;;;;8.17;5.03;;;14.10;1.00;;;;;;5006318;28;20310;-82
2021/03/31 05:08:09;;;;;;;11.73;6.40;;;14.10;1.00;;;;;;5014432;28;20721;-83
2021/03/31 05:10:35;;;;;;;7.90;5.03;;;14.10;1.00;;;;;;5022133;28;20185;-81
2021/03/31 05:13:01;;;;;;;7.90;5.13;;;14.10;1.00;;;;;;5016948;28;21494;-82
2021/03/31 05:15:28;;;;;;;7.60;5.00;;;14.10;1.00;;;;;;5003961;28;20445;-82
2021/03/31 05:17:53;;;;;;;10.23;5.80;;;14.10;1.00;;;;;;5018947;28;20512;-83
2021/03/31 05:20:19;;;;;;;8.00;5.43;;;14.00;1.00;;;;;;5014425;28;20475;-82
2021/03/31 05:22:45;;;;;;;6.93;5.30;;;14.00;1.00;;;;;;5019950;28;20253;-82
2021/03/31 05:25:11;;;;;;;10.70;5.13;;;14.00;1.00;;;;;;5014141;28;20381;-84
2021/03/31 05:27:37;;;;;;;8.57;5.33;;;14.10;1.00;;;;;;5016283;28;20219;-81
2021/03/31 05:30:08;;;;;;;7.40;5.17;;;14.10;1.00;;;;;;5018340;28;21766;-80
2021/03/31 05:32:34;;;;;;;7.10;5.53;;;14.00;1.00;;;;;;5009960;28;20880;-80
2021/03/31 05:35:00;;;;;;;12.17;4.57;;;14.00;1.00;;;;;;5016662;28;20981;-80
2021/03/31 05:37:26;;;;;;;12.23;5.97;;;14.10;1.00;;;;;;5015640;28;20448;-82
2021/03/31 05:39:52;;;;;;;9.73;5.20;;;14.10;1.00;;;;;;5014971;28;20840;-83
2021/03/31 05:42:18;;;;;;;10.40;5.50;;;14.10;1.00;;;;;;5016550;28;20463;-83
2021/03/31 05:44:44;;;;;;;9.43;5.77;;;14.10;1.00;;;;;;5014845;28;20225;-82
2021/03/31 05:47:16;;;;;;;10.13;5.90;;;14.00;1.00;;;;;;5014807;28;20530;-80
2021/03/31 05:49:44;;;;;;;8.50;5.43;;;14.20;1.00;;;;;;5013427;28;20457;-81
2021/03/31 05:52:10;;;;;;;7.53;4.77;;;14.20;1.00;;;;;;5021813;28;20460;-80
2021/03/31 05:54:36;;;;;;;16.87;5.57;;;14.20;1.00;;;;;;5014163;28;20434;-80
2021/03/31 05:57:02;;;;;;;9.60;5.27;;;14.20;1.00;;;;;;5024833;28;20276;-81
2021/03/31 05:59:29;;;;;;;12.60;5.77;;;14.20;1.00;;;;;;5018668;28;20482;-80
2021/03/31 06:01:54;;;;;;;10.97;6.10;;;14.30;1.00;;;;;;5013706;28;21313;-80
2021/03/31 06:04:20;;;;;;;7.53;5.40;;;14.30;1.00;;;;;;5026167;28;20468;-80
2021/03/31 06:06:46;;;;;;;7.83;5.90;;;14.30;1.00;;;;;;5017140;28;20211;-81
2021/03/31 06:09:11;;;;;;;9.27;7.13;;;14.30;1.00;;;;;;5016483;28;20199;-82
2021/03/31 06:12:07;;;;;;;10.00;5.30;;;14.30;1.00;;;;;;5017103;28;20200;-79
2021/03/31 06:14:37;;;;;;;9.23;5.87;;;14.30;1.00;;;;;;5000538;28;20287;-81
2021/03/31 06:17:11;;;;;;;13.70;6.53;;;14.30;1.00;;;;;;5016007;28;20464;-83
2021/03/31 06:19:38;;;;;;;10.40;5.37;;;14.30;1.00;;;;;;5008519;28;20455;-83
2021/03/31 06:24:48;;;;;;;11.30;5.60;;;14.20;1.00;;;;;;5008567;28;20526;-83
2021/03/31 06:27:27;;;;;;;9.63;5.70;;;14.20;1.00;;;;;;5005015;28;20460;-82
2021/03/31 06:30:04;;;;;;;7.97;5.20;;;14.30;1.00;;;;;;5006548;28;20445;-83
2021/03/31 06:32:40;;;;;;;11.20;5.70;;;14.30;1.00;;;;;;5000703;28;21054;-82
2021/03/31 06:35:21;;;;;;;13.63;5.07;;;14.40;1.00;;;;;;5014076;28;21151;-83
2021/03/31 06:37:46;;;;;;;11.80;6.53;;;14.40;1.00;;;;;;5014792;28;20599;-83
2021/03/31 06:40:44;;;;;;;12.50;6.10;;;14.60;1.00;;;;;;5010846;28;20464;-83
2021/03/31 06:43:28;;;;;;;11.60;5.73;;;14.60;1.00;;;;;;5014184;28;21181;-82
2021/03/31 06:46:04;;;;;;;9.63;6.10;;;14.70;1.00;;;;;;5014883;28;20478;-83
2021/03/31 06:48:31;;;;;;;10.30;6.90;;;14.80;1.00;;;;;;5013496;28;20465;-83
2021/03/31 06:50:57;;;;;;;10.73;5.80;;;15.00;1.00;;;;;;5025760;28;20553;-84
2021/03/31 06:53:30;;;;;;;10.23;5.73;;;15.00;1.00;;;;;;5011941;28;20452;-84
2021/03/31 06:56:03;;;;;;;6.83;5.60;;;15.10;1.00;;;;;;5016470;28;20711;-84
2021/03/31 06:58:30;;;;;;;11.50;5.93;;;15.20;1.00;;;;;;5020738;28;20458;-84
2021/03/31 07:00:55;;;;;;;10.53;5.80;;;15.20;1.00;;;;;;5015426;28;20462;-84
2021/03/31 07:03:21;;;;;;;9.90;6.07;;;15.40;1.00;;;;;;5008970;28;20456;-83
2021/03/31 07:05:47;;;;;;;14.53;6.70;;;15.40;1.00;;;;;;5003748;28;20224;-84
2021/03/31 07:08:15;;;;;;;11.50;5.33;;;15.60;1.00;;;;;;5011102;28;20517;-83
2021/03/31 07:10:59;;;;;;;9.20;6.10;;;15.70;1.00;;;;;;5014231;28;20270;-83
2021/03/31 07:13:29;;;;;;;10.53;6.27;;;15.90;1.00;;;;;;5015133;28;20544;-83
2021/03/31 07:15:56;;;;;;;9.90;6.73;;;16.10;1.00;;;;;;5019397;28;21286;-82
2021/03/31 07:18:24;;;;;;;12.37;6.10;;;16.20;1.00;;;;;;5017938;28;20473;-84
2021/03/31 07:20:49;;;;;;;13.17;7.10;;;16.30;1.00;;;;;;5011729;28;20857;-83
2021/03/31 07:23:15;;;;;;;11.70;6.63;;;16.40;1.00;;;;;;5011542;28;20484;-83
2021/03/31 07:25:41;;;;;;;11.13;6.23;;;16.50;1.00;;;;;;5013870;28;20355;-84
2021/03/31 07:28:08;;;;;;;8.97;6.53;;;16.50;1.00;;;;;;5011022;28;20219;-83
2021/03/31 07:30:35;;;;;;;11.77;5.77;;;16.70;1.00;;;;;;5005303;28;21266;-82
2021/03/31 07:33:16;;;;;;;9.27;5.87;;;16.80;1.00;;;;;;5005014;28;20467;-82
2021/03/31 07:35:43;;;;;;;10.40;7.03;;;16.90;1.00;;;;;;5007527;28;20539;-82
2021/03/31 07:38:12;;;;;;;14.90;6.20;;;17.10;1.00;;;;;;5004922;28;20452;-83
2021/03/31 07:40:40;;;;;;;10.77;7.00;;;17.20;1.00;;;;;;5007671;28;20510;-82
2021/03/31 07:43:10;;;;;;;14.37;7.13;;;17.40;1.00;;;;;;5002822;28;20477;-83
2021/03/31 07:45:40;;;;;;;14.47;6.23;;;17.50;1.00;;;;;;5012882;28;21361;-82
2021/03/31 07:48:07;;;;;;;14.07;6.60;;;17.60;1.00;;;;;;5007394;28;21480;-82
2021/03/31 07:50:33;;;;;;;18.90;6.90;;;17.60;1.00;;;;;;5004011;28;21069;-82
2021/03/31 07:53:00;;;;;;;13.10;6.67;;;17.70;1.00;;;;;;5016959;28;20505;-83
2021/03/31 07:55:36;;;;;;;10.97;6.90;;;17.80;1.00;;;;;;5015789;28;20195;-82
2021/03/31 07:58:21;;;;;;;11.47;6.97;;;17.90;1.00;;;;;;5014227;28;20442;-82
2021/03/31 08:00:47;;;;;;;12.93;6.30;;;18.10;1.00;;;;;;5012563;28;20521;-83
2021/03/31 08:03:14;;;;;;;10.37;7.27;;;18.10;1.00;;;;;;5009514;28;20946;-83
2021/03/31 08:06:15;;;;;;;11.90;7.03;;;18.10;1.00;;;;;;5008987;28;20883;-84
2021/03/31 08:08:43;;;;;;;12.07;6.43;;;18.30;1.00;;;;;;4996983;28;20465;-84
2021/03/31 08:11:09;;;;;;;11.27;6.07;;;18.40;1.00;;;;;;5005163;28;20775;-84
2021/03/31 08:13:38;;;;;;;11.60;7.30;;;18.50;1.00;;;;;;5007888;28;20446;-84
2021/03/31 08:16:23;;;;;;;11.90;7.10;;;18.60;1.00;;;;;;5008126;28;20187;-84
2021/03/31 08:18:50;;;;;;;12.03;6.80;;;18.70;1.00;;;;;;5012595;28;20461;-84
2021/03/31 08:21:27;;;;;;;10.70;6.20;;;18.80;1.00;;;;;;5011528;28;20614;-84
2021/03/31 08:23:55;;;;;;;15.03;7.40;;;18.90;1.00;;;;;;5010174;28;21253;-84
2021/03/31 08:26:43;;;;;;;10.93;7.37;;;19.00;1.00;;;;;;5010089;28;20459;-82
2021/03/31 08:29:09;;;;;;;13.47;7.03;;;19.10;1.00;;;;;;5012156;28;20546;-84
2021/03/31 08:31:38;;;;;;;10.60;6.17;;;19.10;1.00;;;;;;5011305;28;20457;-84
2021/03/31 08:34:04;;;;;;;11.50;6.60;;;19.30;1.00;;;;;;5009413;28;20179;-84
2021/03/31 08:36:30;;;;;;;10.60;5.57;;;19.30;1.00;;;;;;5015237;28;20481;-83
2021/03/31 08:38:57;;;;;;;11.20;6.30;;;19.50;1.00;;;;;;5010558;28;21334;-84
2021/03/31 08:41:26;;;;;;;15.20;7.93;;;19.50;1.00;;;;;;5007644;28;20273;-84
2021/03/31 08:44:09;;;;;;;13.17;6.50;;;19.60;1.00;;;;;;5010666;28;21119;-84
2021/03/31 08:46:35;;;;;;;12.90;7.03;;;19.70;1.00;;;;;;5011804;28;20454;-84
2021/03/31 08:49:01;;;;;;;12.10;6.90;;;19.70;1.00;;;;;;5007861;28;20526;-84
2021/03/31 08:51:27;;;;;;;10.07;5.47;;;19.80;1.00;;;;;;5010067;28;20474;-85
2021/03/31 08:53:53;;;;;;;7.83;5.37;;;19.80;1.00;;;;;;5009040;28;20194;-83
2021/03/31 08:56:22;;;;;;;16.43;6.80;;;19.90;1.00;;;;;;5009410;28;20203;-84
2021/03/31 08:58:52;;;;;;;8.67;5.87;;;20.10;1.00;;;;;;5023051;28;20184;-85
2021/03/31 09:01:44;;;;;;;13.33;5.70;;;20.20;1.00;;;;;;5018972;28;21169;-84
2021/03/31 09:04:20;;;;;;;8.40;6.00;;;20.30;1.00;;;;;;5004678;28;20462;-84
2021/03/31 09:06:45;;;;;;;7.13;4.27;;;20.30;1.00;;;;;;5007021;28;20474;-84
2021/03/31 09:09:12;;;;;;;6.57;4.80;;;20.40;1.00;;;;;;5007967;28;20422;-84
2021/03/31 09:11:38;;;;;;;8.10;5.20;;;20.40;1.00;;;;;;5009512;28;20693;-85
2021/03/31 09:14:23;;;;;;;8.53;5.27;;;20.50;1.00;;;;;;5011610;28;20468;-83
2021/03/31 09:16:55;;;;;;;8.63;5.37;;;20.60;1.00;;;;;;5010612;28;20320;-85
2021/03/31 09:19:21;;;;;;;6.63;4.93;;;20.70;1.00;;;;;;5011316;28;20475;-84
2021/03/31 09:21:47;;;;;;;9.93;5.07;;;20.70;1.00;;;;;;5009590;28;20634;-85
2021/03/31 09:24:16;;;;;;;7.17;4.83;;;20.70;1.00;;;;;;5013136;28;20473;-85
2021/03/31 09:27:05;;;;;;;8.43;5.40;;;20.80;1.00;;;;;;5013287;28;20552;-84
2021/03/31 09:29:31;;;;;;;12.67;6.20;;;20.90;1.00;;;;;;5017457;28;20462;-84
2021/03/31 09:31:59;;;;;;;8.07;5.27;;;20.90;1.00;;;;;;5011083;28;20477;-85
2021/03/31 09:34:25;;;;;;;10.00;5.60;;;20.90;1.00;;;;;;5010587;28;20544;-85
2021/03/31 09:36:57;;;;;;;11.03;5.90;;;21.00;1.00;;;;;;5010223;28;20443;-85
2021/03/31 09:39:36;;;;;;;8.23;5.77;;;21.10;1.00;;;;;;5009135;28;20468;-84
2021/03/31 09:42:02;;;;;;;11.13;6.00;;;21.10;1.00;;;;;;5010069;28;20453;-83
2021/03/31 09:44:28;;;;;;;7.97;6.03;;;21.30;1.00;;;;;;5007051;28;20945;-84
2021/03/31 09:46:54;;;;;;;8.03;5.83;;;21.30;1.00;;;;;;5012517;28;20587;-84
2021/03/31 09:49:20;;;;;;;9.83;5.67;;;21.40;1.00;;;;;;5013770;28;20224;-83
2021/03/31 09:51:47;;;;;;;10.47;6.03;;;21.50;1.00;;;;;;5006132;28;20217;-84
2021/03/31 09:54:13;;;;;;;7.97;5.13;;;21.50;1.00;;;;;;5009588;28;20470;-84
2021/03/31 09:56:39;;;;;;;8.90;5.40;;;21.60;1.00;;;;;;5012982;28;20451;-84
2021/03/31 09:59:05;;;;;;;7.53;5.50;;;21.70;1.00;;;;;;5006621;28;20960;-84
2021/03/31 10:01:30;;;;;;;8.20;5.03;;;21.70;1.00;;;;;;5007611;28;20878;-84
2021/03/31 10:03:57;;;;;;;8.40;5.40;;;21.80;1.00;;;;;;5001499;28;24839;-84
2021/03/31 10:06:25;;;;;;;7.57;5.50;;;21.80;1.00;;;;;;5005424;28;20247;-83
2021/03/31 10:08:51;;;;;;;6.50;4.90;;;21.80;1.00;;;;;;5009750;28;20446;-83
2021/03/31 10:11:36;;;;;;;10.73;5.60;;;22.00;1.00;;;;;;5002368;28;21126;-83
2021/03/31 10:14:03;;;;;;;8.50;5.13;;;22.10;1.00;;;;;;4997047;28;21266;-84
2021/03/31 10:16:38;;;;;;;8.03;5.03;;;22.10;1.00;;;;;;5006720;28;20475;-83
2021/03/31 10:19:07;;;;;;;10.03;6.40;;;22.20;1.00;;;;;;5005982;28;20457;-83
2021/03/31 10:21:35;;;;;;;7.40;4.63;;;22.20;1.00;;;;;;5006340;28;20591;-83
2021/03/31 10:24:03;;;;;;;7.30;4.37;;;22.20;1.00;;;;;;5000061;28;20540;-80
2021/03/31 10:26:33;;;;;;;7.27;5.03;;;22.20;1.00;;;;;;5003541;28;20468;-82
2021/03/31 10:29:01;;;;;;;7.63;4.90;;;22.30;1.00;;;;;;5005323;28;20563;-82
2021/03/31 10:31:36;;;;;;;9.80;4.10;;;22.40;1.00;;;;;;5009971;28;20467;-82
2021/03/31 10:34:02;;;;;;;7.87;5.03;;;22.40;1.00;;;;;;5004453;28;20446;-83
2021/03/31 10:50:30;;;;;;;7.90;3.73;;;22.80;1.00;;;;;;5004079;28;21242;-81
2021/03/31 10:52:59;;;;;;;10.47;5.33;;;22.90;1.00;;;;;;5002938;28;20464;-82
2021/03/31 10:55:25;;;;;;;6.00;4.37;;;23.00;1.00;;;;;;5005261;28;20438;-83
2021/03/31 10:57:50;;;;;;;11.87;5.27;;;23.10;1.00;;;;;;5007160;28;20455;-81
2021/03/31 11:00:17;;;;;;;7.30;4.83;;;23.10;1.00;;;;;;5018481;28;20450;-82
2021/03/31 11:02:42;;;;;;;7.20;3.97;;;23.20;1.00;;;;;;5013203;28;20724;-82
2021/03/31 11:05:09;;;;;;;6.90;4.50;;;23.20;1.00;;;;;;5002911;28;20525;-83
2021/03/31 11:07:34;;;;;;;10.70;3.97;;;23.20;1.00;;;;;;5005965;28;20763;-82
2021/03/31 11:10:01;;;;;;;11.03;3.60;;;23.20;1.00;;;;;;5002835;28;20462;-81
2021/03/31 11:12:26;;;;;;;6.70;4.70;;;23.20;1.00;;;;;;5005682;28;20184;-82
2021/03/31 11:14:52;;;;;;;9.43;4.30;;;23.40;1.00;;;;;;5002775;28;20504;-83
2021/03/31 11:25:37;;;;;;;8.03;4.47;;;23.80;1.00;;;;;;5005059;28;20612;-81
2021/03/31 11:28:03;;;;;;;8.17;4.50;;;23.70;1.00;;;;;;5009443;28;20477;-82
2021/03/31 11:30:29;;;;;;;5.77;3.93;;;23.80;1.00;;;;;;5012820;28;20417;-82
2021/03/31 11:32:54;;;;;;;8.57;3.53;;;23.70;1.00;;;;;;5003841;28;20436;-83
2021/03/31 11:35:20;;;;;;;6.50;4.67;;;23.90;1.00;;;;;;5008090;28;20293;-82
2021/03/31 11:37:46;;;;;;;8.37;4.07;;;23.90;1.00;;;;;;5008895;28;20253;-83
2021/03/31 11:40:11;;;;;;;6.63;3.90;;;23.90;1.00;;;;;;5008213;28;20811;-83
2021/03/31 11:42:37;;;;;;;8.73;4.60;;;23.90;1.00;;;;;;5007205;28;20401;-84
2021/03/31 11:45:04;;;;;;;5.40;4.53;;;24.10;1.00;;;;;;5014604;28;20230;-87
2021/03/31 11:47:29;;;;;;;7.20;3.97;;;24.10;1.00;;;;;;5017148;28;20185;-85
2021/03/31 11:49:55;;;;;;;4.53;3.23;;;24.00;1.00;;;;;;5003820;28;20466;-84
2021/03/31 11:52:21;;;;;;;5.80;4.33;;;23.90;1.00;;;;;;5005481;28;20716;-85
2021/03/31 11:54:47;;;;;;;8.77;3.63;;;24.00;1.00;;;;;;5005271;28;22339;-85
2021/03/31 11:57:13;;;;;;;5.57;3.50;;;24.10;1.00;;;;;;4998358;28;20450;-86
2021/03/31 11:59:38;;;;;;;13.03;3.93;;;24.10;1.00;;;;;;5005350;28;20317;-86
2021/03/31 12:02:04;;;;;;;5.97;3.90;;;24.20;1.00;;;;;;4993965;28;20212;-85
2021/03/31 12:04:30;;;;;;;4.63;3.77;;;24.40;1.00;;;;;;5007803;28;20260;-86
2021/03/31 12:06:56;;;;;;;6.10;3.40;;;24.60;1.00;;;;;;5016485;28;20210;-87
2021/03/31 12:09:23;;;;;;;5.00;2.83;;;24.50;1.00;;;;;;5004361;28;20206;-86
2021/03/31 12:11:49;;;;;;;5.30;2.80;;;24.60;1.00;;;;;;5011791;28;20275;-85
2021/03/31 12:14:14;;;;;;;4.13;2.80;;;24.50;1.00;;;;;;5011417;28;21281;-85
2021/03/31 12:16:40;;;;;;;5.90;3.37;;;24.50;1.00;;;;;;5013177;28;20246;-85
2021/03/31 12:19:05;;;;;;;5.90;2.90;;;24.40;1.00;;;;;;5033191;28;20656;-85
2021/03/31 12:21:31;;;;;;;6.73;3.33;;;24.50;1.00;;;;;;5017580;28;20263;-85
2021/03/31 12:23:57;;;;;;;4.70;2.63;;;24.70;1.00;;;;;;5013186;28;20184;-86
2021/03/31 12:26:22;;;;;;;5.20;2.40;;;24.80;1.00;;;;;;5013118;28;20241;-86
2021/03/31 12:28:53;;;;;;;5.20;2.50;;;24.80;1.00;;;;;;5032415;28;20729;-87
2021/03/31 12:31:19;;;;;;;7.20;3.10;;;24.80;1.00;;;;;;5019940;28;20265;-86
2021/03/31 12:33:44;;;;;;;4.47;2.50;;;24.90;1.00;;;;;;5006065;28;20825;-81
2021/03/31 12:36:10;;;;;;;4.70;2.60;;;24.80;1.00;;;;;;5019893;28;20574;-82
2021/03/31 12:38:36;;;;;;;6.20;3.40;;;24.80;1.00;;;;;;5016789;28;20191;-82
2021/03/31 12:41:03;;;;;;;5.17;2.90;;;24.80;1.00;;;;;;5015350;28;20184;-83
2021/03/31 12:43:28;;;;;;;4.00;3.10;;;24.80;1.00;;;;;;5011879;28;21125;-83
2021/03/31 12:45:54;;;;;;;5.20;3.10;;;24.80;1.00;;;;;;5017708;28;20936;-84
2021/03/31 12:48:20;;;;;;;8.43;3.00;;;24.90;1.00;;;;;;5006779;28;20230;-83
2021/03/31 12:50:47;;;;;;;7.67;2.83;;;24.80;1.00;;;;;;5009906;28;20205;-83
2021/03/31 12:55:42;;;;;;;9.50;4.37;;;24.90;1.00;;;;;;5021181;28;20488;-86
2021/03/31 12:58:16;;;;;;;7.00;2.90;;;24.90;1.00;;;;;;5009829;28;20187;-85
2021/03/31 13:00:43;;;;;;;5.33;2.40;;;25.10;1.00;;;;;;4995603;28;21573;-85
2021/03/31 13:03:08;;;;;;;6.00;2.90;;;25.00;1.00;;;;;;5005076;28;20447;-83
2021/03/31 13:05:36;;;;;;;6.80;3.30;;;25.10;1.00;;;;;;5008994;28;20541;-85
2021/03/31 13:08:02;;;;;;;4.30;2.80;;;25.10;1.00;;;;;;5007352;28;20207;-82
2021/03/31 13:10:27;;;;;;;4.60;3.30;;;25.20;1.00;;;;;;5006687;28;20452;-83
2021/03/31 13:12:57;;;;;;;3.87;2.33;;;25.10;1.00;;;;;;5010084;28;20442;-82
2021/03/31 13:15:43;;;;;;;6.00;2.70;;;25.10;1.00;;;;;;5008349;28;20457;-86
2021/03/31 13:29:31;;;;;;;3.30;2.37;;;25.30;1.00;;;;;;5006096;28;20440;-83
2021/03/31 13:32:00;;;;;;;6.73;2.80;;;25.30;1.00;;;;;;5002445;28;20826;-86
2021/03/31 13:34:29;;;;;;;7.43;3.10;;;25.20;1.00;;;;;;5003617;28;20513;-82
2021/03/31 13:39:35;;;;;;;7.43;3.90;;;25.10;1.00;;;;;;5000028;28;20542;-86
2021/03/31 13:42:02;;;;;;;5.10;3.23;;;25.20;1.00;;;;;;5005331;28;20460;-83